Time;durP1;ratioP1;P1;durP2;ratioP2;P2;SDS_P1;SDS_P2;PMS_P1;PMS_P2;Temp;Humidity;BMP_temperature;BMP_pressure;BME280_temperature;BME280_humidity;BME280_pressure;Samples;Min_cycle;Max_cycle;Signal;HPM_P1;HPM_P2
2022/03/17 00:00:24;;;;;;;22.35;13.00;;;;;;;2.88;100.00;101502.50;5570937;32;34155;-66
2022/03/17 00:03:28;;;;;;;20.92;13.38;;;;;;;2.92;100.00;101506.62;5570884;32;33816;-66
2022/03/17 00:06:30;;;;;;;19.60;13.77;;;;;;;2.94;100.00;101504.78;5570827;32;33973;-66
2022/03/17 00:09:33;;;;;;;22.75;14.45;;;;;;;3.06;100.00;101511.87;5571175;32;34446;-66
2022/03/17 00:12:36;;;;;;;19.77;13.50;;;;;;;2.87;100.00;101506.06;5570972;32;33852;-66
2022/03/17 00:15:40;;;;;;;18.83;12.60;;;;;;;2.75;100.00;101511.19;5557138;32;34213;-65
2022/03/17 00:18:43;;;;;;;24.12;13.60;;;;;;;2.78;100.00;101505.75;5570741;32;34508;-65
2022/03/17 00:21:53;;;;;;;23.42;14.32;;;;;;;2.79;100.00;101503.06;5558007;32;33999;-65
2022/03/17 00:24:56;;;;;;;21.62;14.10;;;;;;;2.72;100.00;101501.72;5570655;32;34135;-66
2022/03/17 00:27:59;;;;;;;23.00;14.77;;;;;;;2.58;100.00;101504.28;5570899;32;34047;-65
2022/03/17 00:31:01;;;;;;;21.12;13.35;;;;;;;2.61;100.00;101501.53;5570658;32;33812;-66
2022/03/17 00:34:06;;;;;;;24.35;13.25;;;;;;;2.74;100.00;101504.25;5570645;32;34257;-66
2022/03/17 00:37:09;;;;;;;20.23;13.32;;;;;;;2.83;100.00;101506.31;5556508;32;33956;-66
2022/03/17 00:40:13;;;;;;;20.00;12.93;;;;;;;2.82;100.00;101507.25;5570795;32;34672;-65
2022/03/17 00:43:16;;;;;;;19.35;13.15;;;;;;;2.55;100.00;101509.72;5570581;32;33911;-66
2022/03/17 00:46:20;;;;;;;20.60;13.77;;;;;;;2.54;100.00;101506.25;5556990;32;34343;-66
2022/03/17 00:49:22;;;;;;;22.77;14.77;;;;;;;2.47;100.00;101507.53;5556918;32;33824;-66
2022/03/17 00:52:25;;;;;;;22.55;15.00;;;;;;;2.68;100.00;101509.84;5570571;32;33844;-65
2022/03/17 00:55:28;;;;;;;25.85;14.87;;;;;;;2.53;100.00;101509.81;5570454;32;34698;-65
2022/03/17 00:58:31;;;;;;;22.98;15.07;;;;;;;2.60;100.00;101515.53;5570444;32;33927;-66
2022/03/17 01:01:34;;;;;;;22.83;15.40;;;;;;;2.62;100.00;101503.19;5570334;32;33879;-66
2022/03/17 01:04:37;;;;;;;24.98;15.85;;;;;;;2.64;100.00;101506.56;5570439;32;33948;-66
2022/03/17 01:07:41;;;;;;;24.77;15.18;;;;;;;2.60;100.00;101515.53;5570514;32;34236;-66
2022/03/17 01:10:44;;;;;;;25.98;16.62;;;;;;;2.68;100.00;101508.06;5556620;32;33945;-65
2022/03/17 01:13:47;;;;;;;25.62;15.77;;;;;;;2.57;100.00;101513.94;5570405;32;34372;-66
2022/03/17 01:16:50;;;;;;;25.30;15.50;;;;;;;2.74;99.69;101518.19;5570308;32;33954;-66
2022/03/17 01:19:53;;;;;;;26.70;15.02;;;;;;;2.72;99.01;101530.53;5570428;32;33854;-66
2022/03/17 01:22:56;;;;;;;22.08;15.52;;;;;;;2.83;97.49;101527.28;5570317;32;34596;-66
2022/03/17 01:25:58;;;;;;;23.40;15.00;;;;;;;2.68;97.81;101536.88;5570196;32;34223;-66
2022/03/17 01:29:01;;;;;;;25.00;15.50;;;;;;;2.46;98.90;101524.19;5570015;32;34503;-65
2022/03/17 01:32:04;;;;;;;24.85;16.05;;;;;;;2.34;99.93;101534.50;5570542;32;35121;-66
2022/03/17 01:35:09;;;;;;;24.00;15.18;;;;;;;2.35;99.82;101530.97;5570124;32;34498;-65
2022/03/17 01:38:11;;;;;;;21.77;13.65;;;;;;;2.42;99.75;101533.12;5570138;32;34526;-66
2022/03/17 01:41:14;;;;;;;21.92;13.65;;;;;;;2.29;99.61;101526.94;5569998;32;33834;-66
2022/03/17 01:44:17;;;;;;;27.30;14.07;;;;;;;2.26;100.00;101532.34;5570071;32;34312;-64
2022/03/17 01:47:29;;;;;;;24.00;14.65;;;;;;;2.38;99.37;101538.66;5569869;32;34126;-65
2022/03/17 01:50:32;;;;;;;25.48;15.32;;;;;;;2.27;98.99;101534.03;5568904;32;33968;-66
2022/03/17 01:53:35;;;;;;;23.85;15.13;;;;;;;2.53;98.02;101537.78;5556237;32;34724;-66
2022/03/17 01:56:38;;;;;;;22.92;14.38;;;;;;;2.66;96.48;101545.78;5569985;32;35238;-66
2022/03/17 01:59:41;;;;;;;26.62;15.25;;;;;;;2.73;96.30;101547.09;5570150;32;33910;-66
2022/03/17 02:02:49;;;;;;;24.48;15.55;;;;;;;2.81;95.50;101548.34;5569719;32;34492;-66
2022/03/17 02:05:53;;;;;;;23.87;15.35;;;;;;;2.68;95.58;101544.75;5556372;32;34289;-66
2022/03/17 02:08:56;;;;;;;23.00;14.98;;;;;;;2.60;96.09;101553.06;5569803;32;34512;-66
2022/03/17 02:15:26;;;;;;;25.95;15.38;;;;;;;2.51;96.30;101545.75;5569738;32;33431;-66
2022/03/17 02:18:30;;;;;;;22.62;14.32;;;;;;;2.40;96.86;101555.97;5569679;32;33852;-66
2022/03/17 02:21:34;;;;;;;26.85;13.82;;;;;;;2.27;97.62;101555.00;5569617;32;33936;-66
2022/03/17 02:28:03;;;;;;;25.17;13.38;;;;;;;2.16;98.57;101555.59;5557833;32;33789;-66
2022/03/17 02:31:06;;;;;;;23.48;12.82;;;;;;;2.08;98.73;101560.38;5555797;32;33763;-65
2022/03/17 02:34:08;;;;;;;25.65;14.85;;;;;;;2.01;98.98;101560.81;5555977;32;34609;-64
2022/03/17 02:37:15;;;;;;;24.95;15.60;;;;;;;2.00;99.11;101566.97;5569436;32;34568;-66
2022/03/17 02:40:18;;;;;;;25.23;16.35;;;;;;;2.02;99.01;101563.34;5569345;32;35263;-66
2022/03/17 02:43:21;;;;;;;24.55;15.25;;;;;;;2.12;97.96;101567.16;5569180;32;34630;-66
2022/03/17 02:46:25;;;;;;;21.08;13.43;;;;;;;2.09;97.86;101567.31;5569258;32;33873;-64
2022/03/17 02:49:28;;;;;;;21.67;13.82;;;;;;;2.38;96.37;101578.78;5569255;32;34515;-66
2022/03/17 02:52:31;;;;;;;25.23;14.80;;;;;;;2.56;94.82;101576.91;5569188;32;33906;-66
2022/03/17 02:55:35;;;;;;;22.25;13.68;;;;;;;2.46;95.14;101581.81;5569384;32;33909;-66
2022/03/17 02:58:38;;;;;;;21.15;13.50;;;;;;;2.29;96.03;101578.44;5569123;32;34444;-66
2022/03/17 03:01:41;;;;;;;24.92;15.32;;;;;;;2.16;96.98;101578.28;5570128;32;35229;-65
2022/03/17 03:04:44;;;;;;;22.02;14.77;;;;;;;2.34;96.72;101585.13;5571350;32;33995;-64
2022/03/17 03:07:47;;;;;;;24.00;16.00;;;;;;;2.42;96.02;101587.31;5557648;32;33959;-66
2022/03/17 03:10:50;;;;;;;25.08;14.25;;;;;;;2.35;95.88;101592.06;5571439;32;33914;-66
2022/03/17 03:13:53;;;;;;;25.35;14.05;;;;;;;2.33;95.80;101607.00;5571309;32;33910;-66
2022/03/17 03:16:55;;;;;;;25.98;15.02;;;;;;;2.15;96.43;101606.25;5571608;32;34515;-66
2022/03/17 03:19:58;;;;;;;21.85;14.18;;;;;;;2.09;97.07;101617.03;5571264;32;33936;-66
2022/03/17 03:23:01;;;;;;;23.70;15.30;;;;;;;2.19;96.81;101623.47;5571659;32;33879;-64
2022/03/17 03:26:04;;;;;;;27.37;14.82;;;;;;;2.11;96.60;101627.44;5571337;32;33917;-65
2022/03/17 03:32:16;;;;;;;26.42;16.27;;;;;;;1.96;97.43;101636.09;5570968;32;33916;-65
2022/03/17 03:38:50;;;;;;;25.62;15.48;;;;;;;1.76;97.97;101639.78;5553130;32;34033;-65
2022/03/17 03:41:53;;;;;;;28.58;15.02;;;;;;;1.79;98.50;101637.03;5570994;32;34131;-65
2022/03/17 03:44:56;;;;;;;29.52;15.80;;;;;;;2.04;96.37;101628.69;5571323;32;33985;-65
2022/03/17 03:47:58;;;;;;;25.23;15.43;;;;;;;1.99;95.96;101630.69;5570916;32;33900;-64
2022/03/17 03:51:01;;;;;;;31.17;16.87;;;;;;;2.13;94.38;101636.06;5570892;32;34598;-65
2022/03/17 03:54:13;;;;;;;29.12;17.52;;;;;;;1.89;95.80;101635.56;5571381;32;33904;-64
2022/03/17 03:57:16;;;;;;;30.15;18.15;;;;;;;1.75;96.81;101632.84;5570823;32;33807;-64
2022/03/17 04:03:28;;;;;;;24.85;15.32;;;;;;;1.81;98.41;101643.00;5571034;32;33843;-64
2022/03/17 04:06:34;;;;;;;25.67;15.02;;;;;;;1.80;98.19;101641.31;5570788;32;34189;-64
2022/03/17 04:09:40;;;;;;;25.08;15.50;;;;;;;1.65;98.39;101632.50;5557066;32;34533;-64
2022/03/17 04:12:42;;;;;;;29.27;17.02;;;;;;;1.53;98.60;101632.28;5569942;32;34445;-64
2022/03/17 04:15:45;;;;;;;32.50;16.45;;;;;;;1.47;99.66;101625.59;5570559;32;34376;-64
2022/03/17 04:18:48;;;;;;;29.27;18.98;;;;;;;1.39;99.92;101617.31;5570500;32;33810;-64
2022/03/17 04:21:52;;;;;;;27.25;16.65;;;;;;;1.74;100.00;101605.84;5570381;32;34017;-65
2022/03/17 04:24:54;;;;;;;30.77;19.37;;;;;;;2.01;97.77;101606.16;5570466;32;33843;-65
2022/03/17 04:27:57;;;;;;;35.40;19.25;;;;;;;2.21;95.63;101612.91;5556566;32;33775;-64
2022/03/17 04:30:59;;;;;;;29.05;16.90;;;;;;;2.08;96.00;101620.56;5570423;32;34666;-65
2022/03/17 04:34:02;;;;;;;27.98;16.67;;;;;;;1.88;97.12;101625.22;5570503;32;34093;-64
2022/03/17 04:37:05;;;;;;;29.65;16.85;;;;;;;1.77;97.39;101619.69;5570703;32;35087;-64
2022/03/17 04:40:08;;;;;;;30.52;17.95;;;;;;;1.90;96.40;101633.81;5570364;32;33901;-65
2022/03/17 04:43:12;;;;;;;29.87;17.58;;;;;;;2.01;94.70;101637.56;5570359;32;34224;-64
2022/03/17 04:46:16;;;;;;;37.85;19.10;;;;;;;1.92;94.98;101643.28;5570348;32;33823;-64
2022/03/17 04:49:18;;;;;;;34.20;20.73;;;;;;;2.14;92.96;101651.66;5570808;32;34400;-64
2022/03/17 04:55:42;;;;;;;34.75;19.95;;;;;;;1.82;95.84;101670.00;5570275;32;33958;-65
2022/03/17 04:58:46;;;;;;;28.87;17.75;;;;;;;1.84;96.94;101679.47;5570242;32;33934;-64
2022/03/17 05:01:49;;;;;;;34.40;17.60;;;;;;;1.79;96.69;101670.19;5570075;32;34051;-64
2022/03/17 05:04:52;;;;;;;29.08;16.90;;;;;;;1.87;95.88;101674.09;5556720;32;34456;-66
2022/03/17 05:07:57;;;;;;;26.85;15.88;;;;;;;2.06;94.13;101671.34;5570335;32;34548;-65
2022/03/17 05:11:00;;;;;;;30.17;17.33;;;;;;;1.73;95.90;101666.97;5570228;32;33913;-64
2022/03/17 05:14:03;;;;;;;35.13;17.42;;;;;;;1.90;95.30;101678.28;5570538;32;34485;-64
2022/03/17 05:17:06;;;;;;;30.12;19.10;;;;;;;1.81;96.46;101684.87;5570273;32;34331;-65
2022/03/17 05:20:12;;;;;;;29.80;18.92;;;;;;;1.68;97.03;101695.13;5570262;32;33766;-65
2022/03/17 05:23:18;;;;;;;29.60;18.55;;;;;;;1.88;96.34;101703.72;5570343;32;34351;-65
2022/03/17 05:26:20;;;;;;;31.50;18.37;;;;;;;2.00;95.33;101711.75;5570167;32;33997;-65
2022/03/17 05:29:23;;;;;;;34.75;20.00;;;;;;;2.10;94.11;101705.13;5569952;32;34570;-65
2022/03/17 05:32:26;;;;;;;29.55;19.08;;;;;;;2.17;93.30;101716.97;5556452;32;34052;-64
2022/03/17 05:35:29;;;;;;;31.08;18.45;;;;;;;2.33;92.07;101716.97;5569986;32;34524;-65
2022/03/17 05:38:32;;;;;;;28.00;17.58;;;;;;;2.53;90.65;101732.44;5556552;32;33783;-64
2022/03/17 05:41:35;;;;;;;30.55;18.65;;;;;;;2.58;89.58;101735.66;5570015;32;34515;-65
2022/03/17 05:44:38;;;;;;;30.25;18.20;;;;;;;2.62;89.39;101752.06;5570085;32;34572;-64
2022/03/17 05:47:44;;;;;;;28.30;18.48;;;;;;;2.72;88.21;101742.78;5570318;32;33934;-67
2022/03/17 05:50:46;;;;;;;39.40;18.80;;;;;;;2.73;88.03;101746.25;5569940;32;33894;-66
2022/03/17 05:53:49;;;;;;;34.17;18.87;;;;;;;2.90;87.22;101749.63;5570020;32;33869;-65
2022/03/17 05:56:51;;;;;;;28.60;18.37;;;;;;;2.93;86.64;101757.31;5569892;32;34359;-65
2022/03/17 05:59:55;;;;;;;29.08;18.35;;;;;;;3.05;85.46;101759.25;5556286;32;34033;-65
2022/03/17 06:02:59;;;;;;;31.30;18.92;;;;;;;3.08;85.46;101779.22;5569725;32;34024;-65
2022/03/17 06:06:03;;;;;;;34.00;19.50;;;;;;;3.25;84.15;101780.88;5569839;32;34608;-65
2022/03/17 06:09:05;;;;;;;29.75;18.58;;;;;;;3.46;83.27;101790.16;5569365;32;35229;-65
2022/03/17 06:12:09;;;;;;;33.28;19.08;;;;;;;3.56;82.66;101790.47;5556283;32;34627;-65
2022/03/17 06:15:12;;;;;;;31.80;18.45;;;;;;;3.72;81.07;101791.28;5569729;32;33911;-65
2022/03/17 06:18:15;;;;;;;32.05;18.58;;;;;;;3.83;80.50;101802.81;5569499;32;34516;-65
2022/03/17 06:21:18;;;;;;;25.52;16.73;;;;;;;3.93;79.20;101803.13;5569444;32;34671;-65
2022/03/17 06:24:20;;;;;;;30.77;16.95;;;;;;;4.12;78.19;101800.25;5555481;32;34315;-65
2022/03/17 06:27:24;;;;;;;31.40;17.05;;;;;;;4.62;76.28;101799.81;5569053;32;34616;-65
2022/03/17 06:30:31;;;;;;;36.22;17.80;;;;;;;4.82;74.44;101810.78;5555550;32;34344;-65
2022/03/17 06:33:34;;;;;;;36.63;16.80;;;;;;;5.27;72.66;101821.97;5569256;32;34685;-65
2022/03/17 06:36:37;;;;;;;31.52;17.60;;;;;;;5.23;70.88;101810.78;5568522;32;33888;-66
2022/03/17 06:39:39;;;;;;;27.23;16.55;;;;;;;5.31;71.57;101822.59;5555287;32;34674;-66
2022/03/17 06:42:44;;;;;;;29.48;17.30;;;;;;;5.79;69.19;101823.81;5568663;32;34575;-65
2022/03/17 06:45:46;;;;;;;32.70;17.85;;;;;;;5.82;68.95;101831.50;5569027;32;34314;-64
2022/03/17 06:48:49;;;;;;;31.65;17.98;;;;;;;6.20;66.71;101828.94;5568624;32;34013;-65
2022/03/17 06:51:53;;;;;;;32.63;18.20;;;;;;;5.88;67.63;101825.88;5568690;32;33969;-64
2022/03/17 06:54:55;;;;;;;30.60;18.42;;;;;;;6.64;67.20;101833.81;5568805;32;35250;-65
2022/03/17 06:57:58;;;;;;;32.47;18.35;;;;;;;6.87;63.83;101836.50;5568391;32;34706;-64
2022/03/17 07:01:01;;;;;;;32.10;18.73;;;;;;;7.18;61.52;101837.81;5568349;32;34125;-64
2022/03/17 07:04:04;;;;;;;37.55;17.67;;;;;;;7.62;61.68;101849.56;5568466;32;33957;-64
2022/03/17 07:07:07;;;;;;;33.75;18.33;;;;;;;8.25;59.40;101851.84;5568663;32;34060;-64
2022/03/17 07:10:11;;;;;;;31.98;18.30;;;;;;;8.12;58.45;101851.94;5568606;32;34592;-64
2022/03/17 07:13:14;;;;;;;30.00;18.37;;;;;;;8.07;59.10;101842.66;5568458;32;33785;-64
2022/03/17 07:16:18;;;;;;;33.42;19.83;;;;;;;7.76;58.42;101854.69;5568028;32;34090;-65
2022/03/17 07:19:22;;;;;;;30.75;18.52;;;;;;;8.60;55.56;101849.16;5568582;32;33915;-65
2022/03/17 07:22:26;;;;;;;31.83;19.48;;;;;;;8.82;54.71;101856.25;5554468;32;35028;-65
2022/03/17 07:25:29;;;;;;;34.33;19.17;;;;;;;7.13;59.09;101854.94;5568339;32;34525;-64
2022/03/17 07:28:32;;;;;;;35.15;19.17;;;;;;;7.00;59.95;101852.34;5568137;32;34334;-64
2022/03/17 07:31:35;;;;;;;31.67;18.33;;;;;;;7.15;60.33;101847.75;5568289;32;34694;-64
2022/03/17 07:34:37;;;;;;;34.83;19.77;;;;;;;7.64;59.64;101851.16;5567635;32;33863;-64
2022/03/17 07:37:41;;;;;;;39.47;20.42;;;;;;;7.59;59.80;101857.75;5568170;32;34236;-64
2022/03/17 07:40:45;;;;;;;35.70;20.65;;;;;;;8.85;57.23;101854.22;5567636;32;35176;-64
2022/03/17 07:43:49;;;;;;;33.30;19.77;;;;;;;8.84;55.92;101851.69;5568124;32;33874;-64
2022/03/17 07:46:55;;;;;;;37.70;19.52;;;;;;;8.98;56.09;101852.28;5567499;32;33817;-64
2022/03/17 07:50:05;;;;;;;38.30;19.42;;;;;;;9.12;56.17;101853.84;5570542;32;34315;-64
2022/03/17 07:53:08;;;;;;;32.30;19.05;;;;;;;9.09;55.19;101848.78;5570781;32;34494;-64
2022/03/17 07:56:12;;;;;;;33.00;19.90;;;;;;;9.38;55.13;101842.00;5570821;32;34121;-64
2022/03/17 07:59:16;;;;;;;31.35;19.05;;;;;;;9.26;55.11;101836.84;5570774;32;34142;-65
2022/03/17 08:02:20;;;;;;;34.60;19.77;;;;;;;9.47;55.10;101851.00;5570619;32;34314;-65
2022/03/17 08:05:24;;;;;;;35.45;19.25;;;;;;;11.38;50.90;101846.94;5570656;32;34663;-65
2022/03/17 08:08:27;;;;;;;34.78;20.08;;;;;;;11.04;50.71;101849.94;5570275;32;34240;-64
2022/03/17 08:11:30;;;;;;;29.00;18.20;;;;;;;10.33;52.56;101854.37;5570742;32;33819;-65
2022/03/17 08:14:32;;;;;;;34.45;19.40;;;;;;;12.03;49.30;101848.97;5570601;32;33989;-66
2022/03/17 08:17:36;;;;;;;32.13;19.62;;;;;;;11.30;50.68;101864.44;5570649;32;33944;-65
2022/03/17 08:20:42;;;;;;;36.40;20.20;;;;;;;10.56;51.51;101859.50;5570467;32;34053;-65
2022/03/17 08:23:45;;;;;;;29.05;19.20;;;;;;;10.45;51.66;101857.81;5570411;32;34549;-65
2022/03/17 08:26:48;;;;;;;35.95;19.00;;;;;;;11.43;49.78;101864.16;5570161;31;34157;-66
2022/03/17 08:29:51;;;;;;;35.55;19.30;;;;;;;12.48;46.45;101866.00;5570398;32;34592;-65
2022/03/17 08:32:54;;;;;;;29.48;18.95;;;;;;;11.75;47.21;101856.84;5570372;32;34159;-65
2022/03/17 08:35:57;;;;;;;33.13;18.95;;;;;;;10.59;50.98;101873.38;5570280;32;33930;-65
2022/03/17 08:38:59;;;;;;;36.50;19.15;;;;;;;10.85;50.72;101879.91;5570326;32;34627;-65
2022/03/17 08:42:02;;;;;;;41.10;19.08;;;;;;;12.13;47.75;101868.44;5570016;32;33892;-65
2022/03/17 08:51:53;;;;;;;31.25;19.55;;;;;;;12.16;46.84;101876.12;5570372;32;33968;-65
2022/03/17 08:54:56;;;;;;;35.65;19.85;;;;;;;13.11;44.55;101873.34;5556588;32;34494;-66
2022/03/17 08:57:59;;;;;;;34.85;19.73;;;;;;;13.42;44.60;101877.37;5569483;32;34363;-66
2022/03/17 09:01:02;;;;;;;31.92;19.98;;;;;;;13.60;43.38;101869.44;5569964;32;33897;-66
2022/03/17 09:04:14;;;;;;;37.50;20.65;;;;;;;11.26;48.55;101875.47;5570072;32;34795;-65
2022/03/17 09:07:18;;;;;;;34.53;20.35;;;;;;;10.44;50.40;101874.69;5556423;32;33863;-66
2022/03/17 09:10:22;;;;;;;34.17;19.75;;;;;;;10.84;49.76;101880.87;5570638;32;33956;-66
2022/03/17 09:13:26;;;;;;;33.83;20.48;;;;;;;10.71;50.44;101884.75;5556596;32;33863;-65
2022/03/17 09:16:29;;;;;;;39.13;19.83;;;;;;;10.45;51.27;101877.22;5568928;32;34567;-65
2022/03/17 09:19:32;;;;;;;35.83;19.98;;;;;;;10.25;51.54;101874.56;5569852;32;33816;-65
2022/03/17 09:22:35;;;;;;;33.42;19.52;;;;;;;10.09;51.98;101874.97;5556591;32;34481;-65
2022/03/17 09:25:38;;;;;;;35.53;20.17;;;;;;;10.22;51.75;101878.28;5569625;32;33968;-65
2022/03/17 09:28:40;;;;;;;36.33;20.27;;;;;;;9.94;51.80;101878.88;5555693;32;32350;-65
2022/03/17 09:31:43;;;;;;;37.97;20.80;;;;;;;9.95;51.84;101886.72;5569909;32;33864;-65
2022/03/17 09:34:46;;;;;;;31.73;20.05;;;;;;;10.06;52.48;101895.59;5556222;32;33821;-65
2022/03/17 09:37:50;;;;;;;40.00;19.92;;;;;;;10.07;51.41;101884.84;5569734;32;34221;-64
2022/03/17 09:40:52;;;;;;;40.25;22.45;;;;;;;9.94;51.50;101889.50;5569222;32;33919;-64
2022/03/17 09:43:55;;;;;;;41.22;21.90;;;;;;;9.96;51.17;101888.41;5569393;32;34406;-65
2022/03/17 09:46:59;;;;;;;38.88;22.20;;;;;;;9.98;50.64;101893.56;5569513;32;34166;-65
2022/03/17 09:50:04;;;;;;;36.00;22.02;;;;;;;10.49;49.67;101891.06;5569128;32;33792;-65
2022/03/17 09:53:08;;;;;;;41.35;23.73;;;;;;;11.11;47.90;101890.09;5569440;32;34075;-65
2022/03/17 09:56:11;;;;;;;40.88;22.05;;;;;;;10.18;51.17;101884.00;5569380;32;34026;-65
2022/03/17 09:59:14;;;;;;;41.75;22.67;;;;;;;10.45;49.18;101886.97;5570049;32;33906;-65
2022/03/17 10:02:17;;;;;;;37.47;22.55;;;;;;;10.13;49.93;101886.16;5569441;32;34377;-64
2022/03/17 10:05:22;;;;;;;44.53;22.87;;;;;;;10.10;49.58;101876.66;5569441;32;34530;-64
2022/03/17 10:08:25;;;;;;;41.72;22.85;;;;;;;10.32;49.80;101884.50;5569574;32;33937;-64
2022/03/17 10:11:31;;;;;;;41.80;22.62;;;;;;;10.94;49.01;101880.94;5568402;32;34305;-64
2022/03/17 10:14:53;;;;;;;42.55;22.52;;;;;;;11.24;47.68;101886.22;5555906;32;33970;-64
2022/03/17 10:17:56;;;;;;;42.25;22.77;;;;;;;11.05;48.44;101885.31;5569360;32;34681;-64
2022/03/17 10:21:24;;;;;;;38.85;22.65;;;;;;;11.42;47.52;101882.91;5569153;32;33875;-65
2022/03/17 10:24:27;;;;;;;38.22;23.58;;;;;;;10.87;47.92;101874.50;5556324;32;34609;-64
2022/03/17 10:27:40;;;;;;;37.15;23.67;;;;;;;10.92;48.05;101877.59;5560807;31;266943;-65
2022/03/17 10:30:43;;;;;;;42.00;23.27;;;;;;;11.52;47.03;101875.81;5569183;32;34583;-66
2022/03/17 10:33:52;;;;;;;44.33;23.05;;;;;;;11.16;47.03;101879.91;5569406;32;34261;-64
2022/03/17 10:37:07;;;;;;;37.10;22.17;;;;;;;10.74;47.41;101871.22;5568788;32;33891;-64
2022/03/17 10:40:11;;;;;;;37.30;22.35;;;;;;;11.59;46.95;101867.13;5569041;32;34065;-64
2022/03/17 10:43:24;;;;;;;37.35;21.45;;;;;;;11.39;46.86;101869.88;5568938;32;33889;-64
2022/03/17 10:46:29;;;;;;;38.25;22.95;;;;;;;11.19;48.25;101871.66;5568807;32;33815;-65
2022/03/17 10:49:33;;;;;;;41.50;22.08;;;;;;;12.38;45.19;101867.00;5555244;32;34497;-64
2022/03/17 10:53:09;;;;;;;41.17;22.85;;;;;;;11.75;46.00;101874.59;5568617;32;34145;-64
2022/03/17 10:56:16;;;;;;;37.63;23.30;;;;;;;11.67;47.34;101872.59;5526729;32;34483;-65
2022/03/17 10:59:19;;;;;;;39.03;22.37;;;;;;;11.72;46.75;101878.38;5568540;32;34570;-63
2022/03/17 11:02:25;;;;;;;37.45;21.80;;;;;;;11.91;45.33;101880.19;5568452;32;33942;-65
2022/03/17 11:05:28;;;;;;;41.92;22.08;;;;;;;11.90;46.09;101880.34;5568572;32;34550;-65
2022/03/17 11:08:32;;;;;;;38.45;22.00;;;;;;;12.75;44.37;101870.53;5568394;32;34031;-64
2022/03/17 11:11:39;;;;;;;35.05;22.52;;;;;;;12.89;43.44;101878.03;5567933;32;34226;-65
2022/03/17 11:14:44;;;;;;;38.63;21.50;;;;;;;13.65;41.95;101883.16;5568624;32;33950;-65
2022/03/17 11:17:49;;;;;;;33.95;21.27;;;;;;;13.37;42.22;101893.84;5568861;32;33951;-64
2022/03/17 11:21:13;;;;;;;37.17;21.62;;;;;;;13.80;40.84;101881.63;5568543;32;33943;-65
2022/03/17 11:24:21;;;;;;;34.67;20.90;;;;;;;13.32;41.24;101882.78;5571161;32;34649;-65
2022/03/17 11:27:24;;;;;;;33.58;20.70;;;;;;;14.24;40.13;101891.34;5570897;32;34066;-65
2022/03/17 11:30:41;;;;;;;35.58;20.33;;;;;;;15.45;37.10;101885.84;5570613;32;34202;-65
2022/03/17 11:33:44;;;;;;;36.80;20.80;;;;;;;14.61;37.99;101893.00;5570997;32;33829;-65
2022/03/17 11:37:33;;;;;;;34.42;20.88;;;;;;;14.40;37.93;101885.34;5570903;32;33862;-64
2022/03/17 11:41:08;;;;;;;38.72;20.00;;;;;;;14.03;39.74;101890.84;5569100;32;34562;-65
2022/03/17 11:44:10;;;;;;;32.15;19.75;;;;;;;14.81;37.06;101897.13;5570683;32;33883;-65
2022/03/17 11:47:26;;;;;;;35.05;20.17;;;;;;;15.77;35.12;101897.69;5570874;32;34567;-65
2022/03/17 11:50:49;;;;;;;32.88;19.60;;;;;;;14.91;35.96;101889.00;5570920;32;34601;-65
2022/03/17 11:53:52;;;;;;;30.33;19.98;;;;;;;13.60;38.37;101894.28;5570787;32;34580;-65
2022/03/17 11:57:04;;;;;;;31.48;19.08;;;;;;;13.97;37.35;101887.94;5570893;32;33970;-65
2022/03/17 12:00:19;;;;;;;32.05;19.12;;;;;;;14.05;36.88;101890.69;5570818;32;34551;-65
2022/03/17 12:03:56;;;;;;;35.97;19.67;;;;;;;14.73;36.80;101894.37;5557403;32;33794;-65
2022/03/17 12:07:10;;;;;;;34.67;20.60;;;;;;;14.15;37.83;101894.09;5570504;32;33858;-65
2022/03/17 12:11:06;;;;;;;30.25;19.98;;;;;;;13.94;38.57;101883.78;5569864;32;34493;-65
2022/03/17 12:14:17;;;;;;;35.03;19.80;;;;;;;13.77;38.84;101892.59;5531345;32;33799;-65
2022/03/17 12:17:27;;;;;;;33.70;19.70;;;;;;;13.08;39.38;101879.78;5570621;32;33997;-65
2022/03/17 12:20:45;;;;;;;35.80;19.42;;;;;;;13.27;38.48;101882.38;5570681;32;34686;-64
2022/03/17 12:23:49;;;;;;;33.22;18.73;;;;;;;13.51;38.72;101887.16;5557069;32;34638;-64
2022/03/17 12:27:12;;;;;;;33.45;20.65;;;;;;;14.00;37.74;101877.81;5570292;32;34522;-64
2022/03/17 12:30:16;;;;;;;30.15;18.62;;;;;;;14.59;36.12;101884.28;5556131;32;33927;-64
2022/03/17 12:33:20;;;;;;;32.22;19.50;;;;;;;14.55;36.43;101889.12;5570129;32;34437;-64
2022/03/17 12:36:23;;;;;;;34.33;19.48;;;;;;;16.04;34.41;101867.91;5570896;32;33854;-64
2022/03/17 12:39:28;;;;;;;35.03;20.75;;;;;;;14.91;35.91;101871.09;5570288;32;34995;-65
2022/03/17 12:42:42;;;;;;;32.22;18.90;;;;;;;14.12;37.30;101883.75;5570283;32;33944;-64
2022/03/17 12:45:49;;;;;;;34.60;20.17;;;;;;;13.97;37.68;101877.28;5570319;32;34510;-65
2022/03/17 12:49:05;;;;;;;39.25;21.17;;;;;;;13.67;38.85;101887.34;5557046;32;34024;-64
2022/03/17 12:52:14;;;;;;;31.05;19.77;;;;;;;13.47;39.07;101875.97;5570174;32;34446;-64
2022/03/17 12:55:20;;;;;;;36.05;21.62;;;;;;;13.20;39.11;101872.47;5570242;32;33808;-64
2022/03/17 12:58:24;;;;;;;36.63;20.58;;;;;;;12.43;40.74;101876.25;5570383;32;33912;-65
2022/03/17 13:01:27;;;;;;;31.95;20.15;;;;;;;13.87;38.90;101882.69;5556548;32;34561;-64
2022/03/17 13:04:30;;;;;;;35.83;20.25;;;;;;;13.05;40.04;101886.25;5570162;32;33886;-65
2022/03/17 13:07:35;;;;;;;37.72;20.52;;;;;;;14.52;37.96;101881.44;5570337;32;33865;-65
2022/03/17 13:17:41;;;;;;;34.65;19.52;;;;;;;13.76;38.45;101880.25;5569922;32;34231;-64
2022/03/17 13:20:51;;;;;;;36.20;20.33;;;;;;;12.84;40.06;101874.97;5570435;32;33961;-64
2022/03/17 13:23:54;;;;;;;35.25;19.77;;;;;;;12.81;40.61;101888.59;5570274;32;33923;-64
2022/03/17 13:27:00;;;;;;;37.75;20.12;;;;;;;13.42;39.76;101878.22;5569910;32;34565;-64
2022/03/17 13:30:12;;;;;;;32.47;20.00;;;;;;;14.48;38.19;101873.84;5556902;32;34187;-65
2022/03/17 13:33:18;;;;;;;33.83;19.25;;;;;;;13.83;38.58;101876.84;5569873;32;33929;-65
2022/03/17 13:36:24;;;;;;;29.23;18.45;;;;;;;13.31;39.46;101880.28;5570198;32;33854;-65
2022/03/17 13:39:32;;;;;;;30.42;19.10;;;;;;;14.13;38.42;101880.09;5569816;32;33971;-64
2022/03/17 13:42:35;;;;;;;30.77;19.67;;;;;;;14.03;38.83;101884.69;5570365;32;34072;-64
2022/03/17 13:45:45;;;;;;;32.25;19.23;;;;;;;12.99;40.26;101873.53;5568476;32;33918;-65
2022/03/17 13:48:48;;;;;;;42.58;19.60;;;;;;;12.83;41.11;101867.16;5569816;32;33458;-64
2022/03/17 13:51:53;;;;;;;28.95;18.95;;;;;;;12.38;42.78;101877.66;5556128;32;34159;-64
2022/03/17 13:55:24;;;;;;;32.40;18.37;;;;;;;11.99;43.62;101869.72;5557361;32;33817;-65
2022/03/17 13:58:45;;;;;;;32.10;18.80;;;;;;;12.16;43.58;101871.66;5547239;32;34583;-64
2022/03/17 14:02:14;;;;;;;33.47;18.45;;;;;;;12.05;43.03;101876.28;5558243;32;33322;-64
2022/03/17 14:05:24;;;;;;;33.30;17.90;;;;;;;12.80;42.19;101872.75;5556705;32;33985;-64
2022/03/17 14:08:28;;;;;;;27.15;17.23;;;;;;;12.56;42.47;101874.09;5555973;32;34387;-64
2022/03/17 14:11:33;;;;;;;32.67;18.40;;;;;;;12.19;43.36;101875.84;5569968;32;34630;-64
2022/03/17 14:14:36;;;;;;;29.58;17.85;;;;;;;12.19;43.71;101874.03;5569494;32;34618;-64
2022/03/17 14:17:39;;;;;;;31.17;17.27;;;;;;;12.10;43.99;101882.03;5569521;32;34061;-64
2022/03/17 14:20:42;;;;;;;31.75;16.90;;;;;;;11.70;44.40;101884.78;5569764;32;34111;-64
2022/03/17 14:27:08;;;;;;;32.72;18.20;;;;;;;11.79;44.10;101883.12;5568741;32;34025;-65
2022/03/17 14:30:11;;;;;;;37.70;18.42;;;;;;;11.88;43.59;101882.28;5568414;32;34633;-64
2022/03/17 14:33:14;;;;;;;30.02;17.87;;;;;;;12.09;43.91;101875.88;5569055;32;33990;-64
2022/03/17 14:36:17;;;;;;;26.75;17.42;;;;;;;12.48;43.56;101875.81;5569095;32;33962;-64
2022/03/17 14:39:20;;;;;;;29.87;17.52;;;;;;;11.87;45.45;101867.31;5569380;32;33989;-64
2022/03/17 14:42:23;;;;;;;27.20;16.95;;;;;;;11.43;46.40;101873.94;5555339;32;35321;-64